Time;durP1;ratioP1;P1;durP2;ratioP2;P2;SDS_P1;SDS_P2;PMS_P1;PMS_P2;Temp;Humidity;BMP_temperature;BMP_pressure;BME280_temperature;BME280_humidity;BME280_pressure;Samples;Min_cycle;Max_cycle;Signal;HPM_P1;HPM_P2
2022/08/13 00:03:14;;;;;;;5.53;1.70;;;;;;;22.62;51.75;101698.22;20950173;28;20475;-61
2022/08/13 00:13:56;;;;;;;1.77;1.63;;;;;;;22.51;52.47;101697.63;20967826;28;20055;-60
2022/08/13 00:24:20;;;;;;;5.18;2.10;;;;;;;22.44;52.00;101689.44;20956562;28;20552;-59
2022/08/13 00:34:52;;;;;;;7.07;2.00;;;;;;;22.28;53.11;101696.44;20966043;28;20523;-63
2022/08/13 00:45:13;;;;;;;2.33;1.80;;;;;;;22.32;53.24;101691.63;20953356;28;20422;-63
2022/08/13 00:55:36;;;;;;;7.15;2.00;;;;;;;22.18;53.65;101686.84;20955167;28;20048;-62
2022/08/13 01:05:59;;;;;;;3.13;1.67;;;;;;;21.99;54.01;101687.84;20951914;28;20501;-60
2022/08/13 01:16:22;;;;;;;4.20;1.83;;;;;;;21.83;53.62;101697.47;20964620;28;20041;-61
2022/08/13 01:26:46;;;;;;;4.53;1.77;;;;;;;21.69;54.82;101685.53;20958023;28;20110;-60
2022/08/13 01:37:08;;;;;;;6.00;2.05;;;;;;;21.41;55.37;101685.63;20961854;28;20048;-60
2022/08/13 01:58:29;;;;;;;7.90;2.20;;;;;;;20.95;57.11;101685.72;20959720;28;20374;-61
2022/08/13 02:08:57;;;;;;;5.93;2.20;;;;;;;21.04;57.35;101676.88;20961936;28;20072;-60
2022/08/13 02:19:19;;;;;;;8.05;2.53;;;;;;;20.97;57.66;101683.72;20971949;28;20052;-63
2022/08/13 02:29:55;;;;;;;4.20;2.50;;;;;;;20.85;57.72;101687.53;20962924;28;20131;-62
2022/08/13 02:50:57;;;;;;;6.82;2.03;;;;;;;20.70;58.28;101688.94;20959601;28;20090;-60
2022/08/13 03:01:20;;;;;;;3.38;2.40;;;;;;;20.55;59.21;101690.34;20949486;28;20086;-60
2022/08/13 03:11:44;;;;;;;7.85;2.53;;;;;;;20.58;59.43;101687.41;20953937;28;20053;-61
2022/08/13 03:22:06;;;;;;;9.85;2.45;;;;;;;20.54;59.83;101693.97;20954046;28;20045;-59
2022/08/13 03:32:35;;;;;;;6.47;2.30;;;;;;;20.37;60.79;101696.50;20951407;28;20087;-60
2022/08/13 03:43:07;;;;;;;9.75;2.65;;;;;;;20.24;60.80;101688.00;20957592;28;20048;-61
2022/08/13 03:53:36;;;;;;;5.68;2.80;;;;;;;19.95;62.32;101689.75;20945509;28;20040;-60
2022/08/13 04:04:05;;;;;;;3.00;2.20;;;;;;;19.92;61.94;101699.81;20949401;28;20045;-60
2022/08/13 04:14:30;;;;;;;7.38;2.35;;;;;;;20.02;61.54;101700.69;20953023;28;20055;-60
2022/08/13 04:25:04;;;;;;;7.38;2.55;;;;;;;20.03;62.16;101697.06;20952451;28;20500;-60
2022/08/13 04:35:46;;;;;;;6.60;2.70;;;;;;;19.89;63.34;101694.78;20952994;28;20037;-60
2022/08/13 04:46:18;;;;;;;8.80;2.60;;;;;;;19.86;63.77;101689.75;20959517;28;20080;-60
2022/08/13 04:56:47;;;;;;;6.78;2.80;;;;;;;19.89;63.65;101689.47;20963008;28;20033;-60
2022/08/13 05:07:10;;;;;;;6.28;2.70;;;;;;;19.97;64.11;101687.00;20964824;28;20050;-60
2022/08/13 05:17:32;;;;;;;7.00;2.80;;;;;;;19.97;64.44;101684.34;20968532;28;20072;-60
2022/08/13 05:28:10;;;;;;;8.55;2.80;;;;;;;20.18;64.22;101685.09;20959077;28;20381;-59
2022/08/13 05:38:35;;;;;;;9.77;2.92;;;;;;;20.18;64.22;101685.91;20967026;28;20075;-59
2022/08/13 05:49:01;;;;;;;5.85;2.75;;;;;;;20.25;63.46;101681.72;20960826;28;20087;-59
2022/08/13 06:10:11;;;;;;;4.53;2.50;;;;;;;20.75;61.94;101676.09;20946555;28;20379;-60
2022/08/13 06:20:33;;;;;;;4.65;2.40;;;;;;;21.05;62.29;101664.44;20959193;28;20512;-59
2022/08/13 06:31:01;;;;;;;2.75;1.98;;;;;;;21.48;59.96;101684.91;20972071;28;20055;-64
2022/08/13 06:41:23;;;;;;;7.57;1.90;;;;;;;21.89;58.89;101681.78;20964605;28;20089;-61
2022/08/13 06:51:55;;;;;;;4.23;1.90;;;;;;;22.49;56.57;101692.50;20962662;28;20036;-62
2022/08/13 07:02:18;;;;;;;2.65;1.70;;;;;;;23.03;56.36;101692.19;20960680;28;20606;-62
2022/08/13 07:12:41;;;;;;;3.33;1.92;;;;;;;23.14;56.01;101688.47;20962712;28;20082;-60
2022/08/13 07:23:04;;;;;;;4.82;2.03;;;;;;;23.44;55.41;101688.75;20939826;28;20041;-61
2022/08/13 07:33:51;;;;;;;1.88;1.67;;;;;;;23.69;54.22;101695.88;20937951;28;20036;-60
2022/08/13 07:44:20;;;;;;;6.45;1.63;;;;;;;23.95;54.66;101691.31;20937132;28;20155;-60
2022/08/13 07:54:44;;;;;;;4.03;1.60;;;;;;;24.11;55.00;101702.00;20935499;28;20093;-59
2022/08/13 08:05:12;;;;;;;5.72;1.70;;;;;;;24.43;53.56;101711.69;20933287;28;20156;-60
2022/08/13 08:15:38;;;;;;;3.65;1.50;;;;;;;24.74;53.60;101707.34;20931619;28;20210;-60
2022/08/13 08:26:20;;;;;;;2.80;1.50;;;;;;;25.03;53.86;101713.00;20961111;28;20055;-61
2022/08/13 08:36:42;;;;;;;6.60;1.60;;;;;;;25.29;52.23;101718.97;20964627;28;20048;-62
2022/08/13 08:47:08;;;;;;;4.00;1.40;;;;;;;25.71;52.00;101719.47;20978856;28;20040;-61
2022/08/13 08:57:30;;;;;;;4.32;1.60;;;;;;;26.24;48.36;101714.16;20972249;28;20041;-62
2022/08/13 09:07:53;;;;;;;2.20;1.35;;;;;;;26.43;49.08;101712.69;20971660;28;20037;-61
2022/08/13 09:18:21;;;;;;;2.28;1.20;;;;;;;26.82;47.06;101702.66;20969750;28;20037;-62
2022/08/13 09:28:55;;;;;;;3.83;1.10;;;;;;;27.12;46.09;101699.00;20965598;28;20049;-62
2022/08/13 09:39:31;;;;;;;1.10;1.00;;;;;;;27.38;43.30;101694.84;20953529;28;20043;-62
2022/08/13 09:50:04;;;;;;;3.22;1.33;;;;;;;27.55;45.95;101690.13;20950185;28;20052;-62
2022/08/13 10:00:28;;;;;;;1.80;1.23;;;;;;;28.08;45.55;101677.16;20959447;28;20503;-62
2022/08/13 10:10:50;;;;;;;3.45;1.33;;;;;;;28.06;42.42;101667.66;20951355;28;20041;-62
2022/08/13 10:21:13;;;;;;;1.67;1.20;;;;;;;28.61;40.18;101658.69;20973552;28;20055;-63
2022/08/13 10:31:42;;;;;;;2.10;1.20;;;;;;;28.76;41.34;101651.34;20957052;28;20087;-61
2022/08/13 10:42:11;;;;;;;4.35;1.45;;;;;;;29.23;40.81;101638.03;20952450;28;20083;-61
2022/08/13 10:52:33;;;;;;;3.03;1.40;;;;;;;29.53;41.50;101623.28;20954209;28;20032;-62
2022/08/13 11:03:05;;;;;;;5.20;1.27;;;;;;;29.48;41.89;101618.50;20956566;28;20044;-62
2022/08/13 11:13:31;;;;;;;3.30;1.58;;;;;;;29.53;39.70;101624.13;20972342;28;20143;-62
2022/08/13 11:24:13;;;;;;;9.95;1.85;;;;;;;29.07;39.96;101611.50;20957887;28;20444;-62
2022/08/13 11:34:35;;;;;;;4.40;1.70;;;;;;;29.99;39.01;101602.72;20956330;28;20187;-62
2022/08/13 11:44:57;;;;;;;1.77;1.40;;;;;;;30.18;39.66;101596.53;20963164;28;20397;-66
2022/08/13 11:55:18;;;;;;;4.03;1.60;;;;;;;29.02;40.38;101584.38;20948597;28;20048;-62
2022/08/13 12:05:42;;;;;;;10.35;1.90;;;;;;;30.10;38.34;101583.28;20958536;28;20059;-67
2022/08/13 12:16:05;;;;;;;1.65;1.40;;;;;;;29.70;40.09;101576.16;20945396;28;20060;-64
2022/08/13 12:26:33;;;;;;;2.13;1.90;;;;;;;30.23;40.23;101572.50;20951681;28;20048;-65
2022/08/13 12:36:55;;;;;;;2.33;1.65;;;;;;;30.45;39.07;101554.03;20938903;28;20040;-63
2022/08/13 12:47:18;;;;;;;4.25;1.60;;;;;;;29.78;39.95;101535.63;20930298;28;20166;-64
2022/08/13 12:57:43;;;;;;;1.55;1.40;;;;;;;29.81;40.81;101535.22;20930659;28;20056;-65
2022/08/13 13:08:33;;;;;;;3.85;1.95;;;;;;;29.59;40.21;101526.53;20946898;28;20044;-64
2022/08/13 13:18:58;;;;;;;2.88;1.95;;;;;;;29.81;39.54;101508.34;20968575;28;20136;-64
2022/08/13 13:29:20;;;;;;;5.63;1.92;;;;;;;29.99;40.89;101495.09;20954994;28;20044;-64
2022/08/13 13:39:42;;;;;;;2.47;1.85;;;;;;;30.42;40.29;101492.53;20949674;28;20048;-63
2022/08/13 13:50:06;;;;;;;2.08;1.80;;;;;;;29.92;43.02;101496.94;20944631;28;20424;-63
2022/08/13 14:00:41;;;;;;;2.75;2.00;;;;;;;29.99;40.95;101473.56;20948071;28;20037;-63
2022/08/13 14:11:04;;;;;;;4.38;2.10;;;;;;;30.16;41.39;101469.41;20946967;28;20704;-63
2022/08/13 14:21:30;;;;;;;3.45;2.22;;;;;;;30.03;39.59;101458.69;20946075;28;20452;-63
2022/08/13 14:31:52;;;;;;;6.00;2.35;;;;;;;30.17;46.14;101444.16;20951889;28;20040;-63
2022/08/13 14:42:29;;;;;;;3.80;2.42;;;;;;;30.37;38.91;101444.94;20942706;28;20048;-62
2022/08/13 14:53:12;;;;;;;3.47;2.08;;;;;;;29.86;41.34;101430.53;20941385;28;20071;-64
2022/08/13 15:03:36;;;;;;;4.18;2.42;;;;;;;30.20;41.57;101416.84;20955428;28;20135;-64
2022/08/13 15:14:00;;;;;;;4.60;2.63;;;;;;;30.16;40.56;101412.91;20939341;28;20048;-66
2022/08/13 15:24:32;;;;;;;5.47;2.92;;;;;;;30.38;39.34;101398.16;20946268;28;20052;-65
2022/08/13 15:35:13;;;;;;;2.75;2.45;;;;;;;30.19;40.77;101380.19;20927478;28;20099;-64
2022/08/13 15:45:40;;;;;;;4.70;2.75;;;;;;;30.37;40.33;101374.97;20962493;28;20051;-66
2022/08/13 15:56:03;;;;;;;3.00;2.70;;;;;;;30.17;41.29;101364.28;20940872;28;20125;-64
2022/08/13 16:06:27;;;;;;;3.95;2.75;;;;;;;30.34;42.86;101361.94;20939439;28;20048;-64
2022/08/13 16:16:55;;;;;;;5.22;3.13;;;;;;;30.24;41.22;101348.13;20972830;28;20045;-65
2022/08/13 16:27:22;;;;;;;5.22;3.20;;;;;;;30.88;39.75;101330.78;20938991;28;20056;-66
2022/08/13 16:37:59;;;;;;;3.05;2.50;;;;;;;30.92;40.94;101313.97;20935835;28;20044;-66
2022/08/13 16:48:24;;;;;;;4.53;2.90;;;;;;;30.55;41.91;101309.47;20955269;28;20052;-64
2022/08/13 16:58:53;;;;;;;5.55;3.10;;;;;;;30.29;45.48;101302.53;20953087;28;20037;-65
2022/08/13 17:09:14;;;;;;;4.35;3.35;;;;;;;30.03;42.59;101291.88;20953769;28;20512;-66
2022/08/13 17:19:38;;;;;;;3.33;3.03;;;;;;;30.02;43.02;101290.22;20952805;28;20045;-66
2022/08/13 17:30:20;;;;;;;3.53;3.22;;;;;;;30.08;46.28;101287.50;20951543;28;20055;-65
2022/08/13 17:40:47;;;;;;;4.20;3.40;;;;;;;30.05;43.18;101284.44;20951600;28;20041;-64
2022/08/13 17:51:11;;;;;;;4.18;3.50;;;;;;;29.89;43.38;101301.00;20946485;28;20397;-65
2022/08/13 18:01:38;;;;;;;;;;;;;;;29.45;44.09;101288.31;20941614;28;20047;-65
2022/08/13 18:12:00;;;;;;;5.78;3.42;;;;;;;28.95;46.26;101290.81;20942249;28;20660;-66
2022/08/13 18:22:26;;;;;;;5.93;3.53;;;;;;;28.65;46.75;101289.50;20943062;28;20511;-64
2022/08/13 18:32:50;;;;;;;22.38;4.07;;;;;;;28.35;48.59;101292.72;20938407;28;20067;-66
2022/08/13 18:43:24;;;;;;;5.55;3.80;;;;;;;27.98;49.58;101295.03;20938080;28;20043;-65
2022/08/13 18:53:46;;;;;;;8.05;4.10;;;;;;;27.96;50.10;101313.16;20939369;28;20059;-66
2022/08/13 19:04:08;;;;;;;5.85;3.58;;;;;;;27.76;50.78;101317.59;20946265;28;20044;-64
2022/08/13 19:14:36;;;;;;;4.55;3.83;;;;;;;27.58;51.40;101317.25;20934231;28;20048;-65
2022/08/13 19:25:00;;;;;;;;;;;;;;;27.20;52.50;101320.47;20938160;28;20109;-64
2022/08/13 19:35:25;;;;;;;5.38;3.90;;;;;;;26.98;53.67;101327.66;20940881;28;19920;-65
2022/08/13 19:45:47;;;;;;;4.85;3.88;;;;;;;26.94;54.03;101336.28;20953132;28;20048;-64
2022/08/13 19:56:24;;;;;;;5.90;3.90;;;;;;;26.77;54.48;101341.06;20941162;28;20055;-65
2022/08/13 20:06:55;;;;;;;5.43;3.88;;;;;;;26.66;55.43;101346.09;20941822;28;20040;-64
2022/08/13 20:17:17;;;;;;;5.35;4.07;;;;;;;26.52;55.66;101342.41;20944952;28;20562;-65
2022/08/13 20:27:44;;;;;;;6.43;4.22;;;;;;;26.25;56.63;101344.13;20940271;28;20045;-65
2022/08/13 20:38:13;;;;;;;5.90;4.22;;;;;;;26.10;57.07;101343.31;20934962;28;20585;-64
2022/08/13 20:48:35;;;;;;;8.25;4.25;;;;;;;26.00;57.51;101351.59;20961092;28;20515;-64
2022/08/13 20:58:56;;;;;;;5.32;3.92;;;;;;;25.94;58.38;101352.34;20948487;28;20057;-63
2022/08/13 21:09:38;;;;;;;6.85;4.07;;;;;;;25.67;58.52;101341.44;20950288;28;20048;-64
2022/08/13 21:20:16;;;;;;;5.90;3.90;;;;;;;25.36;59.78;101335.41;20942704;28;20064;-64
2022/08/13 21:30:40;;;;;;;9.65;4.10;;;;;;;25.46;59.97;101346.69;20953694;28;20040;-65
2022/08/13 21:41:08;;;;;;;6.28;4.40;;;;;;;25.24;60.28;101344.88;20966726;28;20139;-64
2022/08/13 21:51:30;;;;;;;7.65;4.70;;;;;;;25.18;60.69;101334.09;20950060;28;20049;-64
2022/08/13 22:01:57;;;;;;;6.25;4.95;;;;;;;25.16;60.40;101331.59;20963289;28;20440;-63
2022/08/13 22:12:24;;;;;;;6.40;4.40;;;;;;;25.02;61.46;101337.69;20964728;28;20471;-64
2022/08/13 22:22:46;;;;;;;6.22;4.85;;;;;;;24.92;61.50;101331.75;20959043;28;20045;-64
2022/08/13 22:33:09;;;;;;;5.78;4.50;;;;;;;24.88;62.00;101325.13;20959048;28;20060;-64
2022/08/13 22:43:32;;;;;;;8.27;4.32;;;;;;;24.86;62.47;101332.47;20965819;28;20127;-64
2022/08/13 22:54:10;;;;;;;6.07;4.65;;;;;;;24.63;62.83;101334.28;20975872;28;20072;-64
2022/08/13 23:04:32;;;;;;;7.43;4.40;;;;;;;24.39;63.46;101315.75;20960149;28;20125;-64
2022/08/13 23:14:57;;;;;;;5.72;4.78;;;;;;;24.64;63.48;101319.97;20958711;28;20055;-64
2022/08/13 23:25:20;;;;;;;7.38;4.55;;;;;;;24.49;63.89;101300.38;20960332;28;20056;-64
2022/08/13 23:35:43;;;;;;;6.05;4.75;;;;;;;24.13;65.24;101290.41;20954339;28;20033;-64
2022/08/13 23:46:09;;;;;;;5.93;4.75;;;;;;;24.14;65.23;101280.59;20962091;28;20063;-65
2022/08/13 23:56:33;;;;;;;7.82;4.72;;;;;;;23.93;66.45;101269.69;20947204;28;20040;-65
